Time;durP1;ratioP1;P1;durP2;ratioP2;P2;SDS_P1;SDS_P2;PMS_P1;PMS_P2;Temp;Humidity;BMP_temperature;BMP_pressure;BME280_temperature;BME280_humidity;BME280_pressure;Samples;Min_cycle;Max_cycle;Signal;HPM_P1;HPM_P2
2021/09/07 00:00:05;;;;;;;;;17.00;16.00;;;;;;;;5014297;28;51030;-52
2021/09/07 00:02:30;;;;;;;;;14.00;14.00;;;;;;;;5018195;28;51048;-51
2021/09/07 00:04:56;;;;;;;;;17.25;17.25;;;;;;;;5023023;28;51712;-51
2021/09/07 00:07:22;;;;;;;;;17.25;14.25;;;;;;;;5030804;28;51150;-52
2021/09/07 00:09:48;;;;;;;;;16.50;16.00;;;;;;;;5014991;28;51188;-48
2021/09/07 00:12:13;;;;;;;;;13.50;13.50;;;;;;;;5021461;28;51240;-51
2021/09/07 00:14:38;;;;;;;;;14.67;14.33;;;;;;;;5016190;28;51280;-51
2021/09/07 00:17:03;;;;;;;;;14.33;14.33;;;;;;;;5030981;28;51049;-48
2021/09/07 00:19:29;;;;;;;;;16.00;14.00;;;;;;;;5020265;28;51420;-51
2021/09/07 00:21:54;;;;;;;;;15.75;15.50;;;;;;;;5015388;28;50969;-48
2021/09/07 00:24:20;;;;;;;;;17.50;16.75;;;;;;;;5015025;28;51082;-48
2021/09/07 00:26:45;;;;;;;;;14.25;14.25;;;;;;;;5023632;28;51008;-51
2021/09/07 00:29:10;;;;;;;;;13.00;13.00;;;;;;;;5025665;28;51112;-51
2021/09/07 00:31:35;;;;;;;;;16.50;15.75;;;;;;;;5016484;28;50998;-50
2021/09/07 00:34:00;;;;;;;;;14.25;14.25;;;;;;;;5023610;28;51802;-52
2021/09/07 00:36:26;;;;;;;;;13.33;13.33;;;;;;;;5031801;28;51279;-48
2021/09/07 00:38:51;;;;;;;;;17.00;13.67;;;;;;;;5022884;28;50950;-51
2021/09/07 00:41:16;;;;;;;;;14.67;14.00;;;;;;;;5021390;28;51147;-50
2021/09/07 00:43:41;;;;;;;;;18.00;15.67;;;;;;;;5014420;28;50974;-47
2021/09/07 00:46:07;;;;;;;;;13.00;12.00;;;;;;;;4998413;28;50922;-48
2021/09/07 00:48:32;;;;;;;;;14.75;14.50;;;;;;;;5022690;28;52319;-46
2021/09/07 00:50:57;;;;;;;;;14.33;13.67;;;;;;;;5020802;28;51171;-47
2021/09/07 00:53:22;;;;;;;;;18.67;15.33;;;;;;;;5034259;28;51019;-50
2021/09/07 00:55:48;;;;;;;;;17.00;16.50;;;;;;;;5028959;28;52441;-50
2021/09/07 00:58:15;;;;;;;;;13.75;13.75;;;;;;;;5009052;28;51073;-47
2021/09/07 01:00:41;;;;;;;;;15.50;15.50;;;;;;;;5027289;28;51543;-49
2021/09/07 01:03:07;;;;;;;;;14.75;14.50;;;;;;;;5029804;28;51116;-49
2021/09/07 01:05:32;;;;;;;;;15.75;14.75;;;;;;;;5019574;28;51011;-48
2021/09/07 01:07:57;;;;;;;;;16.75;15.50;;;;;;;;5017931;28;51296;-47
2021/09/07 01:10:22;;;;;;;;;16.75;16.00;;;;;;;;5015591;28;51106;-47
2021/09/07 01:12:48;;;;;;;;;17.00;16.00;;;;;;;;5011911;28;51873;-48
2021/09/07 01:15:13;;;;;;;;;16.75;16.75;;;;;;;;5028301;28;51179;-49
2021/09/07 01:17:38;;;;;;;;;21.75;21.50;;;;;;;;5034122;28;51164;-47
2021/09/07 01:20:04;;;;;;;;;16.67;16.33;;;;;;;;5014706;28;51141;-46
2021/09/07 01:22:29;;;;;;;;;15.67;15.00;;;;;;;;5027252;28;51254;-48
2021/09/07 01:24:54;;;;;;;;;15.00;14.25;;;;;;;;5014763;28;51336;-48
2021/09/07 01:27:20;;;;;;;;;13.00;12.75;;;;;;;;5032647;28;51049;-49
2021/09/07 01:29:47;;;;;;;;;16.50;16.00;;;;;;;;5024444;28;51125;-48
2021/09/07 01:32:12;;;;;;;;;17.00;17.00;;;;;;;;5027527;28;51030;-51
2021/09/07 01:34:39;;;;;;;;;17.00;15.50;;;;;;;;5022277;28;50977;-48
2021/09/07 01:37:04;;;;;;;;;17.00;17.00;;;;;;;;5017890;28;51131;-49
2021/09/07 01:39:30;;;;;;;;;22.00;22.00;;;;;;;;5022858;28;51037;-50
2021/09/07 01:41:55;;;;;;;;;18.25;16.25;;;;;;;;5018700;28;51787;-51
2021/09/07 01:44:21;;;;;;;;;18.25;17.00;;;;;;;;5018353;28;51045;-45
2021/09/07 01:46:47;;;;;;;;;16.50;16.00;;;;;;;;5020996;28;51072;-47
2021/09/07 01:49:13;;;;;;;;;15.25;14.75;;;;;;;;5013674;28;51788;-48
2021/09/07 01:51:39;;;;;;;;;14.25;13.50;;;;;;;;5019921;28;51846;-51
2021/09/07 01:54:05;;;;;;;;;16.25;15.50;;;;;;;;5026641;28;51095;-49
2021/09/07 01:56:31;;;;;;;;;19.00;17.00;;;;;;;;5026908;28;51000;-50
2021/09/07 01:58:56;;;;;;;;;19.00;19.00;;;;;;;;5013422;28;51124;-49
2021/09/07 02:01:21;;;;;;;;;14.75;14.75;;;;;;;;5033614;28;51984;-52
2021/09/07 02:03:46;;;;;;;;;15.75;15.00;;;;;;;;5014630;28;51117;-51
2021/09/07 02:06:11;;;;;;;;;16.00;15.25;;;;;;;;5014287;28;51055;-51
2021/09/07 02:08:37;;;;;;;;;16.00;14.25;;;;;;;;5000796;28;51273;-52
2021/09/07 02:11:02;;;;;;;;;19.50;17.25;;;;;;;;5027665;28;51124;-52
2021/09/07 02:13:27;;;;;;;;;18.25;15.00;;;;;;;;5013975;28;51216;-50
2021/09/07 02:15:52;;;;;;;;;15.50;14.50;;;;;;;;5018641;28;50967;-50
2021/09/07 02:18:17;;;;;;;;;20.00;14.75;;;;;;;;5021830;28;50929;-48
2021/09/07 02:20:43;;;;;;;;;17.00;16.25;;;;;;;;5018988;28;51004;-52
2021/09/07 02:23:08;;;;;;;;;13.75;13.50;;;;;;;;4994952;28;50978;-49
2021/09/07 02:25:33;;;;;;;;;17.00;15.75;;;;;;;;5017827;28;51134;-51
2021/09/07 02:27:59;;;;;;;;;14.75;14.50;;;;;;;;5011831;28;50939;-51
2021/09/07 02:30:25;;;;;;;;;13.50;13.00;;;;;;;;5031759;28;51183;-50
2021/09/07 02:32:50;;;;;;;;;18.75;18.50;;;;;;;;5019529;28;51181;-48
2021/09/07 02:35:15;;;;;;;;;15.25;15.00;;;;;;;;5030929;28;51333;-48
2021/09/07 02:37:41;;;;;;;;;15.50;14.00;;;;;;;;5001345;28;51166;-47
2021/09/07 02:40:07;;;;;;;;;12.75;12.50;;;;;;;;5006768;28;51170;-49
2021/09/07 02:42:32;;;;;;;;;15.00;15.00;;;;;;;;5023884;28;51067;-48
2021/09/07 02:44:57;;;;;;;;;17.75;16.00;;;;;;;;5033144;28;51413;-51
2021/09/07 02:47:22;;;;;;;;;15.50;14.00;;;;;;;;5016041;28;51370;-47
2021/09/07 02:49:48;;;;;;;;;16.00;15.25;;;;;;;;5029127;28;51150;-49
2021/09/07 02:52:13;;;;;;;;;13.00;13.00;;;;;;;;5032854;28;52101;-51
2021/09/07 02:54:38;;;;;;;;;12.50;12.50;;;;;;;;5033048;28;51299;-52
2021/09/07 02:57:04;;;;;;;;;15.00;14.75;;;;;;;;5009063;28;51307;-51
2021/09/07 02:59:29;;;;;;;;;14.50;13.75;;;;;;;;5014938;28;51174;-52
2021/09/07 03:01:54;;;;;;;;;16.00;16.00;;;;;;;;5024218;28;50988;-52
2021/09/07 03:04:19;;;;;;;;;14.75;14.75;;;;;;;;5028591;28;50963;-49
2021/09/07 03:06:46;;;;;;;;;17.75;16.00;;;;;;;;5012178;28;51058;-51
2021/09/07 03:09:11;;;;;;;;;21.25;17.75;;;;;;;;5017191;28;51034;-50
2021/09/07 03:11:37;;;;;;;;;17.50;16.75;;;;;;;;5029044;28;51172;-48
2021/09/07 03:14:02;;;;;;;;;17.25;15.50;;;;;;;;5018370;28;51046;-50
2021/09/07 03:16:33;;;;;;;;;16.00;15.25;;;;;;;;5015621;28;51363;-51
2021/09/07 03:18:58;;;;;;;;;11.00;11.00;;;;;;;;5015611;28;52172;-49
2021/09/07 03:21:25;;;;;;;;;13.67;13.67;;;;;;;;5032868;28;51085;-48
2021/09/07 03:23:50;;;;;;;;;18.50;16.75;;;;;;;;5023783;28;51038;-51
2021/09/07 03:26:15;;;;;;;;;15.00;14.50;;;;;;;;5017079;28;50917;-48
2021/09/07 03:28:40;;;;;;;;;14.75;14.75;;;;;;;;5029297;28;52372;-50
2021/09/07 03:31:05;;;;;;;;;16.00;13.75;;;;;;;;5032303;28;50997;-51
2021/09/07 03:33:31;;;;;;;;;13.50;12.75;;;;;;;;5017832;28;50909;-52
2021/09/07 03:35:56;;;;;;;;;14.00;13.50;;;;;;;;5020431;28;51075;-50
2021/09/07 03:38:21;;;;;;;;;17.00;15.50;;;;;;;;5011769;28;52953;-48
2021/09/07 03:40:46;;;;;;;;;14.00;14.00;;;;;;;;5010221;28;52508;-47
2021/09/07 03:43:12;;;;;;;;;15.50;14.25;;;;;;;;5017057;28;51084;-47
2021/09/07 03:45:37;;;;;;;;;16.25;15.00;;;;;;;;5023470;28;50956;-46
2021/09/07 03:48:02;;;;;;;;;14.00;14.00;;;;;;;;5015374;28;51695;-48
2021/09/07 03:50:28;;;;;;;;;13.25;12.75;;;;;;;;5025698;28;51118;-47
2021/09/07 03:52:53;;;;;;;;;17.75;17.75;;;;;;;;5013590;28;51171;-49
2021/09/07 03:55:18;;;;;;;;;19.25;18.25;;;;;;;;5020440;28;51405;-48
2021/09/07 03:57:43;;;;;;;;;17.00;16.00;;;;;;;;5016882;28;51068;-51
2021/09/07 04:00:09;;;;;;;;;18.50;18.00;;;;;;;;5032075;28;51066;-50
2021/09/07 04:02:34;;;;;;;;;16.75;16.75;;;;;;;;5013455;28;50936;-49
2021/09/07 04:04:59;;;;;;;;;18.50;17.00;;;;;;;;5011939;28;51503;-51
2021/09/07 04:07:24;;;;;;;;;17.25;16.75;;;;;;;;5009178;28;52154;-48
2021/09/07 04:09:50;;;;;;;;;17.25;16.25;;;;;;;;5021449;28;51084;-47
2021/09/07 04:12:15;;;;;;;;;17.00;15.50;;;;;;;;5032080;28;51331;-51
2021/09/07 04:14:40;;;;;;;;;20.25;19.25;;;;;;;;5018754;28;51150;-48
2021/09/07 04:17:06;;;;;;;;;19.00;18.50;;;;;;;;5015232;28;51569;-49
2021/09/07 04:19:31;;;;;;;;;15.25;14.00;;;;;;;;4995212;28;51181;-49
2021/09/07 04:21:57;;;;;;;;;19.75;19.75;;;;;;;;5026956;28;51085;-52
2021/09/07 04:24:22;;;;;;;;;19.25;17.00;;;;;;;;5016073;28;52747;-47
2021/09/07 04:26:47;;;;;;;;;16.25;16.25;;;;;;;;5017743;28;51801;-48
2021/09/07 04:29:12;;;;;;;;;18.50;17.75;;;;;;;;5019819;28;51045;-48
2021/09/07 04:31:38;;;;;;;;;18.00;17.00;;;;;;;;5031840;28;51057;-52
2021/09/07 04:34:03;;;;;;;;;18.00;17.75;;;;;;;;5025206;28;51183;-51
2021/09/07 04:36:28;;;;;;;;;18.00;16.50;;;;;;;;5017692;28;51024;-52
2021/09/07 04:38:54;;;;;;;;;16.00;15.50;;;;;;;;4996228;28;51135;-48
2021/09/07 04:41:19;;;;;;;;;18.75;18.75;;;;;;;;5014691;28;51235;-48
2021/09/07 04:43:44;;;;;;;;;18.00;17.00;;;;;;;;5033460;28;51349;-48
2021/09/07 04:46:09;;;;;;;;;20.75;17.25;;;;;;;;5024020;28;51974;-48
2021/09/07 04:48:34;;;;;;;;;17.50;17.25;;;;;;;;5022855;28;50976;-53
2021/09/07 04:51:00;;;;;;;;;17.67;17.33;;;;;;;;5034876;28;50926;-48
2021/09/07 04:53:25;;;;;;;;;16.00;15.00;;;;;;;;5024378;28;50964;-49
2021/09/07 04:55:50;;;;;;;;;16.00;15.00;;;;;;;;5028549;28;51124;-52
2021/09/07 04:58:15;;;;;;;;;19.00;18.25;;;;;;;;5014446;28;51051;-51
2021/09/07 05:00:41;;;;;;;;;20.00;19.75;;;;;;;;5025936;28;50929;-51
2021/09/07 05:03:06;;;;;;;;;22.00;20.00;;;;;;;;5014960;28;52175;-52
2021/09/07 05:05:31;;;;;;;;;16.25;16.25;;;;;;;;5000979;28;51877;-50
2021/09/07 05:07:58;;;;;;;;;18.50;17.50;;;;;;;;5021913;28;50908;-48
2021/09/07 05:10:24;;;;;;;;;18.00;17.25;;;;;;;;5034656;28;50875;-49
2021/09/07 05:12:49;;;;;;;;;17.50;16.75;;;;;;;;5017028;28;51447;-51
2021/09/07 05:15:14;;;;;;;;;17.50;16.50;;;;;;;;5024437;28;52259;-51
2021/09/07 05:17:39;;;;;;;;;17.50;17.25;;;;;;;;5021784;28;51049;-52
2021/09/07 05:20:05;;;;;;;;;23.50;21.25;;;;;;;;5024416;28;51159;-52
2021/09/07 05:22:30;;;;;;;;;17.75;17.75;;;;;;;;5019378;28;51041;-52
2021/09/07 05:24:55;;;;;;;;;20.50;19.25;;;;;;;;5016857;28;51699;-50
2021/09/07 05:27:21;;;;;;;;;18.00;17.75;;;;;;;;5021837;28;51010;-51
2021/09/07 05:29:46;;;;;;;;;20.25;19.25;;;;;;;;5034909;28;51203;-51
2021/09/07 05:32:11;;;;;;;;;20.50;19.00;;;;;;;;5020933;28;51335;-53
2021/09/07 05:34:39;;;;;;;;;18.50;18.25;;;;;;;;5016773;28;51937;-50
2021/09/07 05:37:04;;;;;;;;;20.25;19.00;;;;;;;;5016423;28;50922;-53
2021/09/07 05:39:30;;;;;;;;;16.75;16.25;;;;;;;;5014664;28;50929;-48
2021/09/07 05:41:55;;;;;;;;;17.50;16.25;;;;;;;;5022871;28;51349;-52
2021/09/07 05:44:21;;;;;;;;;22.00;20.25;;;;;;;;4996198;28;53973;-52
2021/09/07 05:46:46;;;;;;;;;19.50;18.75;;;;;;;;5033715;28;51024;-51
2021/09/07 05:49:11;;;;;;;;;21.75;18.75;;;;;;;;5034526;28;51077;-51
2021/09/07 05:51:37;;;;;;;;;20.00;18.50;;;;;;;;5025987;28;51351;-50
2021/09/07 05:54:02;;;;;;;;;19.50;18.50;;;;;;;;5011724;28;51098;-50
2021/09/07 05:56:28;;;;;;;;;21.25;20.75;;;;;;;;5010666;28;50964;-51
2021/09/07 05:58:53;;;;;;;;;24.25;22.00;;;;;;;;5018116;28;51027;-52
2021/09/07 06:01:19;;;;;;;;;22.25;21.00;;;;;;;;5011139;28;51332;-52
2021/09/07 06:03:44;;;;;;;;;24.75;24.00;;;;;;;;5019704;28;52896;-50
2021/09/07 06:06:09;;;;;;;;;21.25;19.25;;;;;;;;5017789;28;51111;-50
2021/09/07 06:08:34;;;;;;;;;19.00;18.25;;;;;;;;5013742;28;51146;-50
2021/09/07 06:11:00;;;;;;;;;19.00;18.00;;;;;;;;5017436;28;51450;-52
2021/09/07 06:13:25;;;;;;;;;21.25;20.50;;;;;;;;5012374;28;51282;-51
2021/09/07 06:15:51;;;;;;;;;18.50;17.50;;;;;;;;5013361;28;51053;-51
2021/09/07 06:18:16;;;;;;;;;22.50;22.50;;;;;;;;5014915;28;50942;-51
2021/09/07 06:20:41;;;;;;;;;16.25;15.25;;;;;;;;5018385;28;51326;-51
2021/09/07 06:23:06;;;;;;;;;15.50;15.00;;;;;;;;5011504;28;51144;-52
2021/09/07 06:25:32;;;;;;;;;16.75;16.00;;;;;;;;5020127;28;51087;-52
2021/09/07 06:27:57;;;;;;;;;17.00;17.00;;;;;;;;5015374;28;50897;-51
2021/09/07 06:30:22;;;;;;;;;16.67;16.33;;;;;;;;5012658;28;52475;-52
2021/09/07 06:32:47;;;;;;;;;15.00;14.67;;;;;;;;5009909;28;52115;-50
2021/09/07 06:35:12;;;;;;;;;17.25;15.75;;;;;;;;5014789;28;51118;-52
2021/09/07 06:37:38;;;;;;;;;16.75;16.50;;;;;;;;5010315;28;51166;-51
2021/09/07 06:40:04;;;;;;;;;20.67;18.00;;;;;;;;5010452;28;51096;-50
2021/09/07 06:42:30;;;;;;;;;17.33;16.33;;;;;;;;5008779;28;51842;-51
2021/09/07 06:44:55;;;;;;;;;14.00;13.00;;;;;;;;5010954;28;51721;-51
2021/09/07 06:47:20;;;;;;;;;18.33;16.67;;;;;;;;5009908;28;51094;-52
2021/09/07 06:49:45;;;;;;;;;28.25;26.00;;;;;;;;5030319;28;50995;-51
2021/09/07 06:52:11;;;;;;;;;26.25;26.25;;;;;;;;5015669;28;51819;-49
2021/09/07 06:54:36;;;;;;;;;30.75;29.25;;;;;;;;5029893;28;50965;-48
2021/09/07 06:57:01;;;;;;;;;39.00;34.00;;;;;;;;5024937;28;51012;-52
2021/09/07 06:59:27;;;;;;;;;38.00;34.00;;;;;;;;5024497;28;51247;-48
2021/09/07 07:01:52;;;;;;;;;42.25;35.25;;;;;;;;5021498;28;51534;-47
2021/09/07 07:04:17;;;;;;;;;38.00;32.75;;;;;;;;5027101;28;51246;-50
2021/09/07 07:06:44;;;;;;;;;40.25;35.00;;;;;;;;5023273;28;51066;-50
2021/09/07 07:09:09;;;;;;;;;37.00;32.25;;;;;;;;5025510;28;51303;-47
2021/09/07 07:11:34;;;;;;;;;36.50;32.00;;;;;;;;5004034;28;51972;-50
2021/09/07 07:14:00;;;;;;;;;37.50;32.75;;;;;;;;4994642;28;51363;-50
2021/09/07 07:16:25;;;;;;;;;32.25;29.25;;;;;;;;5030512;28;51743;-48
2021/09/07 07:18:50;;;;;;;;;30.00;29.00;;;;;;;;5011763;28;51303;-50
2021/09/07 07:21:15;;;;;;;;;28.75;27.00;;;;;;;;5015086;28;51677;-48
2021/09/07 07:23:40;;;;;;;;;32.25;30.25;;;;;;;;5020007;28;51239;-51
2021/09/07 07:26:06;;;;;;;;;26.00;25.50;;;;;;;;4992562;28;51135;-49
2021/09/07 07:28:31;;;;;;;;;29.00;28.25;;;;;;;;5026594;28;51233;-51
2021/09/07 07:30:56;;;;;;;;;29.00;27.50;;;;;;;;5017269;28;51832;-52
2021/09/07 07:33:22;;;;;;;;;26.00;25.50;;;;;;;;5017634;28;51121;-52
2021/09/07 07:35:47;;;;;;;;;25.50;25.00;;;;;;;;5012945;28;51159;-51
2021/09/07 07:38:12;;;;;;;;;25.00;24.25;;;;;;;;5011153;28;51200;-50
2021/09/07 07:40:37;;;;;;;;;26.25;25.50;;;;;;;;5001662;28;51913;-51
2021/09/07 07:43:03;;;;;;;;;23.50;22.00;;;;;;;;5015484;28;51246;-52
2021/09/07 07:45:28;;;;;;;;;18.00;16.75;;;;;;;;5017423;28;51309;-51
2021/09/07 07:47:53;;;;;;;;;25.25;24.50;;;;;;;;5027542;28;51082;-49
2021/09/07 07:50:18;;;;;;;;;23.25;23.25;;;;;;;;5017254;28;51226;-50
2021/09/07 07:52:44;;;;;;;;;20.00;19.25;;;;;;;;5011296;28;51312;-51
2021/09/07 07:55:09;;;;;;;;;16.50;15.50;;;;;;;;5010693;28;51208;-50
2021/09/07 07:57:35;;;;;;;;;17.25;16.50;;;;;;;;5016659;28;51076;-51
2021/09/07 08:00:00;;;;;;;;;18.50;18.00;;;;;;;;5015364;28;52709;-51
2021/09/07 08:02:25;;;;;;;;;16.75;16.75;;;;;;;;5026600;28;51038;-47
2021/09/07 08:04:50;;;;;;;;;17.75;16.25;;;;;;;;5015539;28;51036;-48
2021/09/07 08:07:16;;;;;;;;;16.00;16.00;;;;;;;;5009270;28;50970;-48
2021/09/07 08:09:41;;;;;;;;;17.75;16.75;;;;;;;;5013566;28;51233;-47
2021/09/07 08:12:06;;;;;;;;;14.50;14.50;;;;;;;;5025353;28;51228;-46
2021/09/07 08:14:32;;;;;;;;;13.75;13.25;;;;;;;;5014718;28;51498;-48
2021/09/07 08:16:57;;;;;;;;;15.00;14.50;;;;;;;;5020959;28;51275;-46
2021/09/07 08:19:22;;;;;;;;;17.75;17.75;;;;;;;;5023794;28;52296;-48
2021/09/07 08:21:47;;;;;;;;;14.50;14.50;;;;;;;;5033212;28;50934;-50
2021/09/07 08:24:13;;;;;;;;;16.50;16.00;;;;;;;;5013537;28;51006;-51
2021/09/07 08:26:38;;;;;;;;;15.25;15.25;;;;;;;;5021420;28;51438;-48
2021/09/07 08:29:03;;;;;;;;;16.00;15.00;;;;;;;;5012726;28;51097;-49
2021/09/07 08:31:28;;;;;;;;;14.50;14.00;;;;;;;;5013714;28;51198;-50
2021/09/07 08:33:54;;;;;;;;;14.75;14.75;;;;;;;;5017534;28;51097;-51
2021/09/07 08:36:20;;;;;;;;;17.50;17.25;;;;;;;;5016964;28;51308;-51
2021/09/07 08:38:45;;;;;;;;;15.75;14.00;;;;;;;;5016676;28;51775;-51
2021/09/07 08:41:14;;;;;;;;;17.00;16.50;;;;;;;;5013491;28;51469;-51
2021/09/07 08:43:41;;;;;;;;;14.50;14.50;;;;;;;;5030368;28;51184;-51
2021/09/07 08:46:07;;;;;;;;;12.50;11.75;;;;;;;;5028917;28;50887;-51
2021/09/07 08:48:32;;;;;;;;;15.00;14.25;;;;;;;;5023586;28;51036;-51
2021/09/07 08:50:57;;;;;;;;;13.25;13.00;;;;;;;;5021961;28;51169;-55
2021/09/07 08:53:23;;;;;;;;;14.75;14.25;;;;;;;;5021633;28;51285;-50
2021/09/07 08:55:48;;;;;;;;;13.00;13.00;;;;;;;;5030391;28;50864;-48
2021/09/07 08:58:13;;;;;;;;;14.50;14.00;;;;;;;;5021881;28;51014;-52
2021/09/07 09:00:39;;;;;;;;;16.00;14.00;;;;;;;;5010199;28;51120;-50
2021/09/07 09:03:12;;;;;;;;;15.00;15.00;;;;;;;;5033843;28;50951;-50
2021/09/07 09:05:41;;;;;;;;;15.00;15.00;;;;;;;;5025615;28;51374;-49
2021/09/07 09:08:10;;;;;;;;;13.25;12.75;;;;;;;;5022887;28;51254;-48
2021/09/07 09:10:36;;;;;;;;;12.00;12.00;;;;;;;;5027686;28;51143;-50
2021/09/07 09:13:06;;;;;;;;;14.25;14.00;;;;;;;;5018417;28;50919;-51
2021/09/07 09:15:31;;;;;;;;;15.00;15.00;;;;;;;;5017632;28;51276;-50
2021/09/07 09:18:05;;;;;;;;;14.75;14.50;;;;;;;;5034001;28;52074;-47
2021/09/07 09:20:31;;;;;;;;;14.00;12.00;;;;;;;;5029093;28;51153;-48
2021/09/07 09:22:57;;;;;;;;;11.25;11.25;;;;;;;;5011360;28;50962;-49
2021/09/07 09:25:27;;;;;;;;;15.25;13.00;;;;;;;;5016942;28;51089;-49
2021/09/07 09:27:55;;;;;;;;;14.00;14.00;;;;;;;;5031798;28;51918;-50
2021/09/07 09:30:24;;;;;;;;;14.25;14.25;;;;;;;;5018797;28;51053;-52
2021/09/07 09:32:50;;;;;;;;;17.00;16.50;;;;;;;;5033603;28;51034;-49
2021/09/07 09:35:15;;;;;;;;;13.75;13.25;;;;;;;;5020760;28;50963;-50
2021/09/07 09:37:57;;;;;;;;;14.75;13.00;;;;;;;;5025792;28;52883;-48
2021/09/07 09:40:22;;;;;;;;;11.75;11.25;;;;;;;;5020042;28;51099;-51
2021/09/07 09:42:48;;;;;;;;;12.50;12.50;;;;;;;;5032196;28;51006;-52
2021/09/07 09:45:14;;;;;;;;;12.50;12.50;;;;;;;;5022098;28;51150;-49
2021/09/07 09:47:43;;;;;;;;;12.00;12.00;;;;;;;;5017945;28;51600;-51
2021/09/07 09:50:12;;;;;;;;;13.00;13.00;;;;;;;;5033712;28;50865;-49
2021/09/07 09:52:39;;;;;;;;;13.25;13.25;;;;;;;;5015698;28;51149;-49
2021/09/07 09:55:05;;;;;;;;;14.00;14.00;;;;;;;;5033666;28;51174;-50
2021/09/07 09:57:31;;;;;;;;;14.00;13.75;;;;;;;;5032646;28;51020;-52
2021/09/07 09:59:58;;;;;;;;;12.50;12.00;;;;;;;;5033348;28;50983;-49
2021/09/07 10:02:24;;;;;;;;;11.75;11.50;;;;;;;;5023514;28;51021;-47
2021/09/07 10:04:49;;;;;;;;;11.75;11.25;;;;;;;;5014239;28;50936;-52
2021/09/07 10:07:14;;;;;;;;;12.50;12.50;;;;;;;;5014605;28;52059;-52
2021/09/07 10:09:41;;;;;;;;;15.50;15.25;;;;;;;;5032934;28;51141;-51
2021/09/07 10:12:23;;;;;;;;;15.75;15.75;;;;;;;;5013933;28;51149;-51
2021/09/07 10:15:01;;;;;;;;;14.75;14.50;;;;;;;;5021805;28;51056;-49
2021/09/07 10:20:10;;;;;;;;;11.25;10.25;;;;;;;;5033274;28;51156;-48
2021/09/07 10:25:52;;;;;;;;;11.50;10.75;;;;;;;;5009330;28;51081;-50
2021/09/07 10:28:31;;;;;;;;;14.75;14.75;;;;;;;;5017335;28;51701;-50
2021/09/07 10:30:59;;;;;;;;;12.75;12.75;;;;;;;;5032493;28;50845;-48
2021/09/07 10:33:31;;;;;;;;;14.00;13.00;;;;;;;;5025136;28;51247;-49
2021/09/07 10:36:05;;;;;;;;;13.75;13.00;;;;;;;;5023569;28;51548;-48
2021/09/07 10:38:43;;;;;;;;;13.50;12.50;;;;;;;;5016369;28;52928;-53
2021/09/07 10:41:09;;;;;;;;;16.00;15.25;;;;;;;;5026088;28;50914;-48
2021/09/07 10:43:54;;;;;;;;;13.00;13.00;;;;;;;;5025132;28;51177;-47
2021/09/07 10:46:39;;;;;;;;;12.75;12.75;;;;;;;;5016533;28;51010;-53
2021/09/07 10:49:15;;;;;;;;;12.75;12.75;;;;;;;;4991129;28;51177;-51
2021/09/07 10:51:59;;;;;;;;;12.25;12.00;;;;;;;;5032307;28;51144;-50
2021/09/07 10:54:25;;;;;;;;;11.00;11.00;;;;;;;;5018089;28;51060;-49
2021/09/07 10:56:50;;;;;;;;;10.75;10.75;;;;;;;;5011116;28;51458;-51
2021/09/07 10:59:34;;;;;;;;;12.50;12.50;;;;;;;;5028299;28;52426;-50
2021/09/07 11:02:18;;;;;;;;;11.25;11.25;;;;;;;;5031832;28;51319;-50
2021/09/07 11:04:50;;;;;;;;;13.00;12.50;;;;;;;;5024283;28;51041;-49
2021/09/07 11:07:50;;;;;;;;;13.50;11.50;;;;;;;;5009058;28;51064;-51
2021/09/07 11:10:19;;;;;;;;;12.00;12.00;;;;;;;;4924306;28;52075;-51
2021/09/07 11:12:50;;;;;;;;;10.75;10.50;;;;;;;;5008742;28;51224;-49
2021/09/07 11:15:17;;;;;;;;;13.00;13.00;;;;;;;;5011869;28;51090;-50
2021/09/07 11:17:50;;;;;;;;;12.50;12.00;;;;;;;;5013718;28;51221;-51
2021/09/07 11:20:16;;;;;;;;;8.25;8.00;;;;;;;;5025491;28;51048;-51
2021/09/07 11:22:41;;;;;;;;;14.75;14.25;;;;;;;;5030958;28;51000;-47
2021/09/07 11:25:08;;;;;;;;;12.25;12.00;;;;;;;;5012323;28;51293;-50
2021/09/07 11:27:52;;;;;;;;;6.50;5.75;;;;;;;;5001599;28;51257;-50
2021/09/07 11:30:21;;;;;;;;;12.00;12.00;;;;;;;;5030908;28;51785;-50
2021/09/07 11:32:46;;;;;;;;;12.75;12.75;;;;;;;;5013290;28;50912;-46
2021/09/07 11:35:12;;;;;;;;;12.25;11.75;;;;;;;;5020388;28;50878;-51
2021/09/07 11:37:37;;;;;;;;;13.25;12.25;;;;;;;;4993929;28;51463;-47
2021/09/07 11:40:06;;;;;;;;;12.50;12.50;;;;;;;;5014470;28;51048;-54
2021/09/07 11:42:40;;;;;;;;;12.50;12.25;;;;;;;;5011428;28;51126;-47
2021/09/07 11:45:06;;;;;;;;;10.25;9.25;;;;;;;;5015548;28;51255;-52
2021/09/07 11:47:32;;;;;;;;;14.00;14.00;;;;;;;;5031837;28;51250;-52
2021/09/07 11:49:57;;;;;;;;;14.75;14.75;;;;;;;;5024053;28;52261;-51
2021/09/07 11:52:22;;;;;;;;;13.00;13.00;;;;;;;;5031338;28;51080;-52
2021/09/07 11:54:48;;;;;;;;;13.75;13.75;;;;;;;;5028107;28;51122;-50
2021/09/07 11:57:13;;;;;;;;;10.25;10.25;;;;;;;;5009016;28;51201;-52
2021/09/07 11:59:38;;;;;;;;;13.75;12.75;;;;;;;;5014787;28;50927;-50
2021/09/07 12:02:08;;;;;;;;;11.75;11.75;;;;;;;;5031138;28;50977;-50
2021/09/07 12:04:53;;;;;;;;;14.00;13.50;;;;;;;;5024919;28;51142;-52
2021/09/07 12:07:19;;;;;;;;;11.75;11.75;;;;;;;;5013026;28;51937;-52
2021/09/07 12:09:44;;;;;;;;;12.75;12.75;;;;;;;;5030988;28;50933;-49
2021/09/07 12:12:13;;;;;;;;;10.00;10.00;;;;;;;;5030958;28;50907;-49
2021/09/07 12:14:39;;;;;;;;;13.00;12.75;;;;;;;;5012483;28;51016;-51
2021/09/07 12:17:12;;;;;;;;;9.50;8.25;;;;;;;;5012402;28;51209;-49
2021/09/07 12:19:38;;;;;;;;;12.25;11.50;;;;;;;;5020511;28;52882;-48
2021/09/07 12:22:03;;;;;;;;;11.00;10.67;;;;;;;;4996615;28;51120;-51
2021/09/07 12:24:29;;;;;;;;;13.00;12.00;;;;;;;;5016699;28;51041;-51
2021/09/07 12:26:54;;;;;;;;;10.33;10.33;;;;;;;;5010442;28;51239;-51
2021/09/07 12:29:19;;;;;;;;;12.33;11.33;;;;;;;;4992934;28;51140;-50
2021/09/07 12:31:45;;;;;;;;;11.67;10.67;;;;;;;;5010915;28;52534;-51
2021/09/07 12:34:10;;;;;;;;;11.00;10.00;;;;;;;;5008189;28;51016;-51
2021/09/07 12:36:46;;;;;;;;;14.00;14.00;;;;;;;;5026239;28;50805;-52
2021/09/07 12:39:12;;;;;;;;;13.50;13.00;;;;;;;;5000704;28;51752;-48
2021/09/07 12:41:37;;;;;;;;;11.00;11.00;;;;;;;;5019931;28;51037;-50
2021/09/07 12:44:03;;;;;;;;;12.33;12.33;;;;;;;;5020303;28;50932;-48
2021/09/07 12:46:28;;;;;;;;;11.00;11.00;;;;;;;;5013872;28;51110;-51
2021/09/07 12:48:53;;;;;;;;;12.00;12.00;;;;;;;;5020050;28;52860;-51
2021/09/07 12:51:20;;;;;;;;;12.00;12.00;;;;;;;;5017917;28;51206;-50
2021/09/07 12:53:46;;;;;;;;;11.67;10.67;;;;;;;;4992704;28;51171;-51
2021/09/07 12:56:15;;;;;;;;;12.33;11.67;;;;;;;;5026693;28;51310;-49
2021/09/07 12:58:51;;;;;;;;;11.75;11.00;;;;;;;;5030220;28;51033;-52
2021/09/07 13:01:16;;;;;;;;;12.67;12.67;;;;;;;;5020835;28;51116;-52
2021/09/07 13:03:42;;;;;;;;;8.33;8.00;;;;;;;;5024781;28;51061;-48
2021/09/07 13:06:08;;;;;;;;;11.67;11.33;;;;;;;;5014622;28;50948;-48
2021/09/07 13:08:34;;;;;;;;;10.67;10.67;;;;;;;;4995915;28;51417;-47
2021/09/07 13:10:59;;;;;;;;;11.33;11.33;;;;;;;;5032647;28;50962;-51
2021/09/07 13:13:24;;;;;;;;;10.33;9.33;;;;;;;;5015708;28;51217;-49
2021/09/07 13:15:49;;;;;;;;;12.25;12.25;;;;;;;;5019153;28;51248;-49
2021/09/07 13:18:15;;;;;;;;;10.67;10.33;;;;;;;;5015716;28;53139;-51
2021/09/07 13:20:40;;;;;;;;;10.00;9.50;;;;;;;;5015652;28;51036;-50
2021/09/07 13:23:05;;;;;;;;;12.67;12.67;;;;;;;;4999352;28;50948;-50
2021/09/07 13:25:30;;;;;;;;;9.00;9.00;;;;;;;;5017579;28;51381;-49
2021/09/07 13:27:56;;;;;;;;;13.00;11.00;;;;;;;;5032848;28;50886;-50
2021/09/07 13:30:21;;;;;;;;;11.00;10.75;;;;;;;;5032949;28;51029;-50
2021/09/07 13:32:46;;;;;;;;;11.00;11.00;;;;;;;;5017964;28;51287;-51
2021/09/07 13:35:11;;;;;;;;;13.50;12.50;;;;;;;;5026800;28;51042;-52
2021/09/07 13:37:37;;;;;;;;;10.75;10.75;;;;;;;;5012253;28;52016;-49
2021/09/07 13:40:03;;;;;;;;;10.25;10.00;;;;;;;;5013237;28;51187;-49
2021/09/07 13:42:28;;;;;;;;;10.25;10.00;;;;;;;;4995565;28;50930;-53
2021/09/07 13:44:53;;;;;;;;;11.33;11.33;;;;;;;;5013820;28;50902;-52
2021/09/07 13:47:18;;;;;;;;;10.00;9.25;;;;;;;;4995642;28;51934;-52
2021/09/07 13:49:44;;;;;;;;;13.25;12.00;;;;;;;;5030979;28;51165;-47
2021/09/07 13:52:09;;;;;;;;;8.00;8.00;;;;;;;;5033630;28;50957;-49
2021/09/07 13:54:35;;;;;;;;;10.00;9.33;;;;;;;;5016254;28;51382;-48
2021/09/07 13:57:00;;;;;;;;;9.33;9.00;;;;;;;;5024030;28;51836;-49
2021/09/07 13:59:25;;;;;;;;;8.67;8.67;;;;;;;;5033317;28;50941;-48
2021/09/07 14:01:51;;;;;;;;;7.00;7.00;;;;;;;;5033136;28;50973;-47
2021/09/07 14:04:16;;;;;;;;;11.00;11.00;;;;;;;;5018442;28;51350;-51
2021/09/07 14:06:41;;;;;;;;;10.00;10.00;;;;;;;;5023466;28;51643;-47
2021/09/07 14:09:06;;;;;;;;;11.00;10.67;;;;;;;;5033112;28;50949;-48
2021/09/07 14:11:32;;;;;;;;;10.67;9.00;;;;;;;;5027049;28;50939;-47
2021/09/07 14:13:57;;;;;;;;;9.67;8.67;;;;;;;;5019802;28;50869;-46
2021/09/07 14:16:24;;;;;;;;;11.00;11.00;;;;;;;;5022367;28;52192;-47
2021/09/07 14:18:49;;;;;;;;;11.33;11.33;;;;;;;;5033020;28;51000;-51